Web Počasí Slunečno.cz™ (Podmínky, ePrivacy) používá cookies a personalizace pro reklamní účely. Pohybem po stránce vyjadřujete souhlas. Odejít

Aktuální počasí v Česku a ve světě - METAR

Seznam meteostanic umístěných nejčasteji na letišti v ČR a ve světě

Vyhledat místa podle abecedy:
A B C D E F G H I J K L M N O P Q R S T U V W X Y Z

Filtrovat:

ID stanice:
a/nebo
Název místa (fulltext):
 
Místo (ID)Naposledy načteno 
Iasi (LRIA) 26.10.2021 16:00 UTC Zobrazit METAR
LRIA 261600Z 15007KT 130V200 CAVOK 10/02 Q1025
Ibiza (LEIB) 26.10.2021 16:00 UTC Zobrazit METAR
LEIB 261600Z 07009KT 040V100 9999 FEW028 21/12 Q1021 NOSIG
Innsbruck (LOWI) 26.10.2021 15:50 UTC Zobrazit METAR
LOWI 261550Z VRB01KT 9999 BKN085 11/05 Q1025 NOSIG
Iraklion (LGIR) 26.10.2021 15:50 UTC Zobrazit METAR
LGIR 261550Z 17003KT 9000 -RA SCT020 BKN025 BKN070 15/15 Q1018 NOSIG
Isafjordur (BIIS) 26.10.2021 16:00 UTC Zobrazit METAR
BIIS 261600Z 03012KT 9999 FEW016 BKN025 04/M00 Q0984
Isla de Pascua (SCIP) 26.10.2021 16:00 UTC Zobrazit METAR
SCIP 261600Z 34006KT 290V040 9999 SCT015 21/17 Q1023 NOSIG
Islamabad (OPRN) 28.12.2019 11:00 UTC Zobrazit METAR
OPRN 281100Z 05004KT 1400 BR SCT100 11/08 Q1016 BECMG 1500 BR
Istanbul (LTBA) 26.10.2021 15:50 UTC Zobrazit METAR
LTBA 261550Z 05014KT CAVOK 14/07 Q1023 NOSIG
Ivano-Frankivs'k (UKLI) Zatím nenačteno  
Reklama

Reklama


Newslettter

Počasí na Váš email

Každý den Vám pošleme předpověď
Emaily chodí ráno a bez reklamy



Odhlásit newsletter


Další české internetové stránky o počasí najdete v katalogu TOPlist - weby o počasí nebo vyhledejte na internetu, co jste tu na Počasí Slunečno Slunečnu zatím nenašli:
Reklama